Time;durP1;ratioP1;P1;durP2;ratioP2;P2;SDS_P1;SDS_P2;PMS_P1;PMS_P2;Temp;Humidity;BMP_temperature;BMP_pressure;BME280_temperature;BME280_humidity;BME280_pressure;Samples;Min_cycle;Max_cycle;Signal;HPM_P1;HPM_P2
2023/03/02 00:02:16;;;;;;;39.88;19.10;;;6.10;99.90;;;;;;5097799;28;20036;-72
2023/03/02 00:04:51;;;;;;;41.22;19.38;;;6.00;99.90;;;;;;5097758;28;20333;-72
2023/03/02 00:07:22;;;;;;;40.08;20.10;;;6.10;99.90;;;;;;5097270;28;20052;-71
2023/03/02 00:09:48;;;;;;;41.65;19.88;;;6.10;99.90;;;;;;5096376;28;20044;-71
2023/03/02 00:12:14;;;;;;;45.08;21.40;;;6.10;99.90;;;;;;5097607;28;20170;-72
2023/03/02 00:14:40;;;;;;;47.03;21.33;;;5.90;99.90;;;;;;5097431;28;20043;-72
2023/03/02 00:17:09;;;;;;;48.25;21.92;;;5.90;99.90;;;;;;5097592;28;20032;-72
2023/03/02 00:19:35;;;;;;;46.08;22.30;;;6.00;99.90;;;;;;5097160;28;20473;-72
2023/03/02 00:22:01;;;;;;;44.47;21.58;;;6.00;99.90;;;;;;5097189;28;20062;-72
2023/03/02 00:24:27;;;;;;;48.30;21.15;;;5.90;99.90;;;;;;5096691;28;20432;-73
2023/03/02 00:26:52;;;;;;;44.72;20.52;;;6.00;99.90;;;;;;5096850;28;20039;-71
2023/03/02 00:29:18;;;;;;;46.47;22.08;;;5.80;99.90;;;;;;5097299;28;20120;-72
2023/03/02 00:31:44;;;;;;;43.60;20.48;;;5.80;99.90;;;;;;5097012;28;20367;-72
2023/03/02 00:34:10;;;;;;;54.75;23.35;;;5.60;99.90;;;;;;5096934;28;20486;-72
2023/03/02 00:36:36;;;;;;;45.75;20.85;;;5.50;99.90;;;;;;5097146;28;20036;-72
2023/03/02 00:39:03;;;;;;;46.05;20.63;;;5.40;99.90;;;;;;5097230;28;20496;-72
2023/03/02 00:41:29;;;;;;;39.90;18.70;;;5.50;99.90;;;;;;5097138;28;20036;-72
2023/03/02 00:43:55;;;;;;;46.00;21.60;;;5.70;99.90;;;;;;5097114;28;20036;-72
2023/03/02 00:46:23;;;;;;;43.42;19.75;;;5.80;99.90;;;;;;5097088;28;20044;-72
2023/03/02 00:48:49;;;;;;;37.80;18.40;;;6.00;99.90;;;;;;5097089;28;20117;-72
2023/03/02 00:51:16;;;;;;;35.85;17.83;;;6.00;99.90;;;;;;5096972;28;20044;-72
2023/03/02 00:53:42;;;;;;;38.45;18.23;;;6.00;99.90;;;;;;5095689;28;20040;-72
2023/03/02 00:56:09;;;;;;;34.22;18.15;;;6.00;99.90;;;;;;5096264;28;20040;-72
2023/03/02 00:58:35;;;;;;;38.28;18.60;;;6.00;99.90;;;;;;5095947;28;20162;-72
2023/03/02 01:01:08;;;;;;;37.22;18.40;;;6.00;99.90;;;;;;5096581;28;20397;-72
2023/03/02 01:03:35;;;;;;;38.38;19.27;;;5.90;99.90;;;;;;5096984;28;20048;-71
2023/03/02 01:06:02;;;;;;;39.97;19.38;;;5.80;99.90;;;;;;5096308;28;20056;-71
2023/03/02 01:08:27;;;;;;;39.45;18.98;;;6.00;99.90;;;;;;5096470;28;20046;-72
2023/03/02 01:10:53;;;;;;;40.47;19.02;;;5.90;99.90;;;;;;5095809;28;20118;-71
2023/03/02 01:13:19;;;;;;;39.53;19.60;;;6.00;99.90;;;;;;5095636;28;20070;-71
2023/03/02 01:15:45;;;;;;;43.78;20.27;;;6.00;99.90;;;;;;5096747;28;20040;-71
2023/03/02 01:18:11;;;;;;;39.35;19.02;;;5.90;99.90;;;;;;5096475;28;20036;-71
2023/03/02 01:20:37;;;;;;;40.50;19.20;;;5.90;99.90;;;;;;5096695;28;20105;-72
2023/03/02 01:23:03;;;;;;;40.50;19.17;;;6.00;99.90;;;;;;5096711;28;20414;-71
2023/03/02 01:25:28;;;;;;;34.65;16.98;;;6.00;99.90;;;;;;5096351;28;20032;-71
2023/03/02 01:27:54;;;;;;;40.67;18.20;;;6.00;99.90;;;;;;5096700;28;20047;-71
2023/03/02 01:30:20;;;;;;;40.30;18.80;;;6.00;99.90;;;;;;5096621;28;20115;-71
2023/03/02 01:32:46;;;;;;;31.63;16.35;;;5.90;99.90;;;;;;5096682;28;20040;-71
2023/03/02 01:35:11;;;;;;;36.80;18.45;;;5.90;99.90;;;;;;5096555;28;20069;-71
2023/03/02 01:37:37;;;;;;;32.63;16.98;;;5.80;99.90;;;;;;5096296;28;20032;-72
2023/03/02 01:40:06;;;;;;;35.83;17.52;;;5.60;99.90;;;;;;5098432;28;20096;-71
2023/03/02 01:42:44;;;;;;;34.30;17.55;;;5.70;99.90;;;;;;5100165;28;20036;-72
2023/03/02 01:45:40;;;;;;;37.63;17.77;;;5.80;99.90;;;;;;5100439;28;20040;-72
2023/03/02 01:48:09;;;;;;;30.50;15.70;;;5.70;99.90;;;;;;5100350;28;20051;-71
2023/03/02 01:50:35;;;;;;;30.38;16.35;;;5.70;99.90;;;;;;5100308;28;20046;-72
2023/03/02 01:53:00;;;;;;;36.63;17.63;;;5.60;99.90;;;;;;5100255;28;20493;-71
2023/03/02 01:55:30;;;;;;;36.58;17.23;;;5.50;99.90;;;;;;5099857;28;20425;-71
2023/03/02 01:57:57;;;;;;;32.67;16.17;;;5.40;99.90;;;;;;5099252;28;20046;-71
2023/03/02 02:00:27;;;;;;;34.17;17.67;;;5.40;99.90;;;;;;5099849;28;20451;-71
2023/03/02 02:03:07;;;;;;;31.33;16.23;;;5.50;99.90;;;;;;5100549;28;20035;-71
2023/03/02 02:05:36;;;;;;;31.35;16.20;;;5.50;99.90;;;;;;5099817;28;20048;-71
2023/03/02 02:08:02;;;;;;;28.70;15.40;;;5.60;99.90;;;;;;5100038;28;20051;-71
2023/03/02 02:10:29;;;;;;;33.45;16.08;;;5.60;99.90;;;;;;5099928;28;20409;-71
2023/03/02 02:12:55;;;;;;;31.20;15.48;;;5.70;99.90;;;;;;5099908;28;20032;-71
2023/03/02 02:15:21;;;;;;;37.28;17.48;;;5.60;99.90;;;;;;5098768;28;20478;-71
2023/03/02 02:17:47;;;;;;;34.83;17.17;;;5.50;99.90;;;;;;5099814;28;20059;-71
2023/03/02 02:20:22;;;;;;;42.85;18.25;;;5.50;99.90;;;;;;5099758;28;20036;-71
2023/03/02 02:23:03;;;;;;;37.35;17.13;;;5.50;99.90;;;;;;5100100;28;20036;-71
2023/03/02 02:25:51;;;;;;;32.75;17.20;;;5.40;99.90;;;;;;5099321;28;20321;-72
2023/03/02 02:28:26;;;;;;;35.72;18.25;;;5.30;99.90;;;;;;5099422;28;20036;-72
2023/03/02 02:31:02;;;;;;;35.78;16.10;;;5.40;99.90;;;;;;5099635;28;20033;-72
2023/03/02 02:33:30;;;;;;;36.90;17.73;;;5.40;99.90;;;;;;5099549;28;20432;-71
2023/03/02 02:36:03;;;;;;;32.92;16.90;;;5.40;99.90;;;;;;5099345;28;20341;-72
2023/03/02 02:38:30;;;;;;;30.63;16.13;;;5.30;99.90;;;;;;5098367;28;20313;-72
2023/03/02 02:41:03;;;;;;;35.40;17.92;;;5.20;99.90;;;;;;5099312;28;20040;-71
2023/03/02 02:43:31;;;;;;;33.65;16.48;;;5.00;99.90;;;;;;5099361;28;20035;-71
2023/03/02 02:45:57;;;;;;;35.45;16.73;;;5.00;99.90;;;;;;5099264;28;20055;-71
2023/03/02 02:48:25;;;;;;;40.88;19.55;;;5.20;99.90;;;;;;5099206;28;20032;-71
2023/03/02 02:50:59;;;;;;;36.30;17.70;;;5.10;99.90;;;;;;5098640;28;20054;-71
2023/03/02 02:53:34;;;;;;;31.15;16.08;;;5.10;99.90;;;;;;5099183;28;20040;-71
2023/03/02 02:56:01;;;;;;;35.30;17.40;;;5.10;99.90;;;;;;5098661;28;20079;-71
2023/03/02 02:58:43;;;;;;;35.40;17.35;;;5.20;99.90;;;;;;5097916;28;20322;-72
2023/03/02 03:01:16;;;;;;;33.65;16.13;;;5.10;99.90;;;;;;5099027;28;20040;-71
2023/03/02 03:03:49;;;;;;;39.20;17.58;;;5.10;99.90;;;;;;5097642;28;20039;-72
2023/03/02 03:06:24;;;;;;;38.30;18.00;;;5.20;99.90;;;;;;5098639;28;20056;-71
2023/03/02 03:08:52;;;;;;;44.33;20.75;;;5.20;99.90;;;;;;5098835;28;20118;-71
2023/03/02 03:11:23;;;;;;;38.22;17.60;;;5.30;99.90;;;;;;5098433;28;20036;-71
2023/03/02 03:14:12;;;;;;;39.08;18.95;;;5.40;99.90;;;;;;5098791;28;20112;-71
2023/03/02 03:16:40;;;;;;;41.28;19.52;;;5.50;99.90;;;;;;5098372;28;20048;-71
2023/03/02 03:19:26;;;;;;;40.70;19.33;;;5.30;99.90;;;;;;5098612;28;20397;-71
2023/03/02 03:21:58;;;;;;;44.08;20.48;;;5.20;99.90;;;;;;5080383;28;20047;-71
2023/03/02 03:24:25;;;;;;;39.85;18.88;;;5.30;99.90;;;;;;5098348;28;20085;-72
2023/03/02 03:26:53;;;;;;;37.80;18.75;;;5.20;99.90;;;;;;5098176;28;20048;-71
2023/03/02 03:29:23;;;;;;;41.42;19.75;;;5.10;99.90;;;;;;5098459;28;20043;-71
2023/03/02 03:31:52;;;;;;;39.58;19.15;;;5.00;99.90;;;;;;5097295;28;20144;-71
2023/03/02 03:34:18;;;;;;;42.30;19.55;;;5.20;99.90;;;;;;5096962;28;20412;-71
2023/03/02 03:36:44;;;;;;;38.28;19.23;;;5.20;99.90;;;;;;5098233;28;20116;-72
2023/03/02 03:39:10;;;;;;;48.80;21.70;;;5.20;99.90;;;;;;5098822;28;20036;-72
2023/03/02 03:41:37;;;;;;;43.65;21.25;;;5.30;99.90;;;;;;5098184;28;20044;-72
2023/03/02 03:44:03;;;;;;;52.25;23.77;;;5.10;99.90;;;;;;5098097;28;20482;-72
2023/03/02 03:46:29;;;;;;;58.78;22.25;;;5.20;99.90;;;;;;5098124;28;20064;-72
2023/03/02 03:48:55;;;;;;;50.83;23.23;;;5.00;99.90;;;;;;5097703;28;20117;-72
2023/03/02 03:51:22;;;;;;;52.40;22.55;;;4.80;99.90;;;;;;5098048;28;20054;-72
2023/03/02 03:53:58;;;;;;;45.85;21.42;;;4.80;99.90;;;;;;5097982;28;20098;-73
2023/03/02 03:56:35;;;;;;;56.17;24.00;;;4.90;99.90;;;;;;5097572;28;20043;-72
2023/03/02 03:59:07;;;;;;;51.83;22.27;;;4.80;99.90;;;;;;5097918;28;20345;-72
2023/03/02 04:01:40;;;;;;;51.08;23.52;;;4.90;99.90;;;;;;5097144;28;20329;-72
2023/03/02 04:04:08;;;;;;;50.95;22.98;;;4.80;99.90;;;;;;5097582;28;20431;-72
2023/03/02 04:06:34;;;;;;;61.40;23.85;;;4.90;99.90;;;;;;5097324;28;20124;-72
2023/03/02 04:09:03;;;;;;;59.85;24.02;;;4.90;99.90;;;;;;5097407;28;20079;-72
2023/03/02 04:11:34;;;;;;;61.80;24.60;;;4.70;99.90;;;;;;5097321;28;20050;-72
2023/03/02 04:14:00;;;;;;;65.97;24.50;;;4.60;99.90;;;;;;5097615;28;20040;-72
2023/03/02 04:16:26;;;;;;;54.05;22.85;;;4.60;99.90;;;;;;5097437;28;20093;-72
2023/03/02 04:18:52;;;;;;;51.38;22.55;;;4.60;99.90;;;;;;5097486;28;20039;-72
2023/03/02 04:21:18;;;;;;;55.92;24.17;;;4.80;99.90;;;;;;5097820;28;20039;-72
2023/03/02 04:23:44;;;;;;;53.25;22.60;;;4.90;99.90;;;;;;5097470;28;20437;-72
2023/03/02 04:26:09;;;;;;;60.63;26.30;;;5.00;99.90;;;;;;5097030;28;20044;-72
2023/03/02 04:28:35;;;;;;;61.65;24.98;;;5.10;99.90;;;;;;5097013;28;20153;-72
2023/03/02 04:31:01;;;;;;;56.67;23.70;;;5.10;99.90;;;;;;5096290;28;20048;-72
2023/03/02 04:33:26;;;;;;;62.03;24.75;;;5.10;99.90;;;;;;5097273;28;20093;-72
2023/03/02 04:35:53;;;;;;;60.35;24.75;;;5.10;99.90;;;;;;5096875;28;20043;-72
2023/03/02 04:38:19;;;;;;;82.25;27.00;;;5.20;99.90;;;;;;5097150;28;20040;-72
2023/03/02 04:40:45;;;;;;;61.80;24.45;;;5.10;99.90;;;;;;5097147;28;20036;-72
2023/03/02 04:43:11;;;;;;;83.47;25.52;;;5.20;99.90;;;;;;5096801;28;20338;-72
2023/03/02 04:45:37;;;;;;;74.00;25.65;;;5.20;99.90;;;;;;5096788;28;20043;-72
2023/03/02 04:48:03;;;;;;;94.65;28.77;;;5.20;99.90;;;;;;5097068;28;20040;-72
2023/03/02 04:50:29;;;;;;;74.00;27.27;;;5.20;99.90;;;;;;5097037;28;20040;-72
2023/03/02 04:52:55;;;;;;;95.97;29.38;;;4.90;99.90;;;;;;5096719;28;20051;-72
2023/03/02 04:55:24;;;;;;;86.00;29.35;;;4.90;99.90;;;;;;5096283;28;20048;-71
2023/03/02 04:57:50;;;;;;;83.75;28.10;;;4.80;99.90;;;;;;5096625;28;20310;-71
2023/03/02 05:00:18;;;;;;;81.53;27.17;;;4.80;99.90;;;;;;5096873;28;20046;-71
2023/03/02 05:02:43;;;;;;;109.47;30.83;;;4.70;99.90;;;;;;5096837;28;20051;-72
2023/03/02 05:05:16;;;;;;;96.10;28.83;;;4.60;99.90;;;;;;5096525;28;20036;-72
2023/03/02 05:07:43;;;;;;;129.95;33.17;;;4.70;99.90;;;;;;5096633;28;20052;-72
2023/03/02 05:10:10;;;;;;;90.30;29.23;;;4.60;99.90;;;;;;5096876;28;20044;-72
2023/03/02 05:12:53;;;;;;;95.57;31.20;;;4.70;99.90;;;;;;5096706;28;20044;-72
2023/03/02 05:15:27;;;;;;;96.32;31.25;;;4.70;99.90;;;;;;5100804;28;20044;-71
2023/03/02 05:17:53;;;;;;;104.60;33.45;;;4.80;99.90;;;;;;5100833;28;20040;-72
2023/03/02 05:20:20;;;;;;;109.22;32.13;;;5.00;99.90;;;;;;5100689;28;20113;-72
2023/03/02 05:22:46;;;;;;;108.50;30.92;;;5.00;99.90;;;;;;5100801;28;20032;-72
2023/03/02 05:25:12;;;;;;;123.45;30.35;;;4.90;99.90;;;;;;5100120;28;20452;-72
2023/03/02 05:27:37;;;;;;;89.03;27.85;;;4.90;99.90;;;;;;5100163;28;20093;-72
2023/03/02 05:30:05;;;;;;;79.15;25.35;;;4.70;99.90;;;;;;5100775;28;20447;-72
2023/03/02 05:32:31;;;;;;;72.82;24.42;;;4.70;99.90;;;;;;5100721;28;20115;-72
2023/03/02 05:34:56;;;;;;;113.97;27.08;;;4.60;99.90;;;;;;5100230;28;20122;-72
2023/03/02 05:37:22;;;;;;;82.65;25.77;;;4.60;99.90;;;;;;5100652;28;20043;-72
2023/03/02 05:39:48;;;;;;;71.55;23.50;;;4.50;99.90;;;;;;5100563;28;20089;-72
2023/03/02 05:42:13;;;;;;;71.80;23.88;;;4.50;99.90;;;;;;5100510;28;20036;-72
2023/03/02 05:44:39;;;;;;;66.05;22.83;;;4.60;99.90;;;;;;5099353;28;20051;-72
2023/03/02 05:47:05;;;;;;;76.32;24.58;;;4.70;99.90;;;;;;5099363;28;20048;-72
2023/03/02 05:49:30;;;;;;;75.63;24.27;;;4.80;99.90;;;;;;5100373;28;20440;-72
2023/03/02 05:51:56;;;;;;;63.95;20.52;;;4.90;99.90;;;;;;5100292;28;20440;-72
2023/03/02 05:54:22;;;;;;;85.78;22.08;;;4.60;99.90;;;;;;5098949;28;20044;-72
2023/03/02 05:56:47;;;;;;;46.42;18.58;;;4.50;99.90;;;;;;5099788;28;20090;-72
2023/03/02 05:59:13;;;;;;;56.83;18.77;;;4.50;99.90;;;;;;5100176;28;20040;-72
2023/03/02 06:01:38;;;;;;;52.35;19.13;;;4.50;99.90;;;;;;5100113;28;20040;-72
2023/03/02 06:04:04;;;;;;;61.85;18.65;;;4.30;99.90;;;;;;5100136;28;20043;-72
2023/03/02 06:06:30;;;;;;;43.63;18.08;;;4.30;99.90;;;;;;5099896;28;20052;-72
2023/03/02 06:08:56;;;;;;;80.18;21.08;;;4.10;99.90;;;;;;5100008;28;20040;-72
2023/03/02 06:11:22;;;;;;;78.03;20.77;;;4.10;99.90;;;;;;5098680;28;20125;-72
2023/03/02 06:13:47;;;;;;;48.83;17.85;;;4.00;99.90;;;;;;5099471;28;20047;-72
2023/03/02 06:16:13;;;;;;;48.95;19.33;;;3.90;99.90;;;;;;5099786;28;20097;-72
2023/03/02 06:18:38;;;;;;;43.03;18.85;;;4.10;99.90;;;;;;5098821;28;20032;-71
2023/03/02 06:21:04;;;;;;;41.75;18.25;;;4.30;99.90;;;;;;5099769;28;20036;-71
2023/03/02 06:23:30;;;;;;;44.78;18.75;;;4.30;99.90;;;;;;5099446;28;20417;-71
2023/03/02 06:25:57;;;;;;;68.93;20.77;;;4.40;99.90;;;;;;5098340;28;20069;-71
2023/03/02 06:28:23;;;;;;;44.55;19.45;;;4.40;99.90;;;;;;5099599;28;20047;-71
2023/03/02 06:30:51;;;;;;;73.25;21.20;;;4.40;99.90;;;;;;5099266;28;20337;-71
2023/03/02 06:33:18;;;;;;;60.72;21.02;;;4.50;99.90;;;;;;5099255;28;20040;-71
2023/03/02 06:35:44;;;;;;;43.75;20.23;;;4.60;99.90;;;;;;5099414;28;20118;-71
2023/03/02 06:38:09;;;;;;;37.67;18.20;;;4.70;99.90;;;;;;5099469;28;20380;-71
2023/03/02 06:40:35;;;;;;;84.80;20.10;;;4.80;99.90;;;;;;5099385;28;20068;-71
2023/03/02 06:43:01;;;;;;;37.53;16.55;;;4.60;99.90;;;;;;5099016;28;20081;-71
2023/03/02 06:45:27;;;;;;;49.97;18.23;;;4.40;99.90;;;;;;5099315;28;20040;-71
2023/03/02 06:47:54;;;;;;;43.35;17.52;;;4.20;99.90;;;;;;5098939;28;20039;-71
2023/03/02 06:50:19;;;;;;;41.30;18.25;;;4.10;99.90;;;;;;5099248;28;20040;-71
2023/03/02 06:52:45;;;;;;;39.88;17.73;;;4.10;99.90;;;;;;5098209;28;20447;-71
2023/03/02 06:55:11;;;;;;;51.55;20.30;;;4.30;99.90;;;;;;5098740;28;20044;-72
2023/03/02 06:57:37;;;;;;;37.03;17.30;;;4.40;99.90;;;;;;5098767;28;20040;-71
2023/03/02 07:00:23;;;;;;;45.50;18.27;;;4.60;99.90;;;;;;5099038;28;20107;-71
2023/03/02 07:02:49;;;;;;;47.15;18.48;;;4.70;99.90;;;;;;5099049;28;20060;-72
2023/03/02 07:05:15;;;;;;;39.72;18.48;;;4.60;99.90;;;;;;5098827;28;20083;-71
2023/03/02 07:07:41;;;;;;;49.92;20.20;;;4.70;99.90;;;;;;5098985;28;20075;-71
2023/03/02 07:10:07;;;;;;;50.47;19.60;;;4.80;99.90;;;;;;5098865;28;20124;-71
2023/03/02 07:12:33;;;;;;;73.45;19.77;;;4.70;99.90;;;;;;5097772;28;20500;-71
2023/03/02 07:14:59;;;;;;;55.58;18.90;;;4.60;99.90;;;;;;5098705;28;20047;-71
2023/03/02 07:17:25;;;;;;;60.38;20.63;;;4.50;99.90;;;;;;5098436;28;20504;-71
2023/03/02 07:19:51;;;;;;;104.18;22.83;;;4.50;99.90;;;;;;5097635;28;20119;-71
2023/03/02 07:22:16;;;;;;;54.83;21.13;;;4.50;99.90;;;;;;5098609;28;20040;-71
2023/03/02 07:24:42;;;;;;;79.72;21.83;;;4.30;99.90;;;;;;5098322;28;20042;-71
2023/03/02 07:27:08;;;;;;;67.03;22.65;;;4.30;99.90;;;;;;5096878;28;20044;-71
2023/03/02 07:29:33;;;;;;;110.03;24.58;;;4.40;99.90;;;;;;5097110;28;20032;-71
2023/03/02 07:31:59;;;;;;;64.93;22.58;;;4.40;99.90;;;;;;5098121;28;20115;-71
2023/03/02 07:34:26;;;;;;;73.63;22.65;;;4.40;99.90;;;;;;5098342;28;20036;-72
2023/03/02 07:36:52;;;;;;;66.78;22.92;;;4.40;99.90;;;;;;5098187;28;20044;-71
2023/03/02 07:39:18;;;;;;;83.00;23.52;;;4.40;99.90;;;;;;5098331;28;20047;-71
2023/03/02 07:41:44;;;;;;;55.58;21.35;;;4.30;99.90;;;;;;5097224;28;20324;-72
2023/03/02 07:44:10;;;;;;;72.32;22.95;;;4.30;99.90;;;;;;5096860;28;20138;-71
2023/03/02 07:46:36;;;;;;;81.32;24.38;;;4.20;99.90;;;;;;5098131;28;20085;-71
2023/03/02 07:49:01;;;;;;;78.97;24.77;;;4.30;99.90;;;;;;5097800;28;20040;-71
2023/03/02 07:51:27;;;;;;;78.20;25.48;;;4.30;99.90;;;;;;5098097;28;20165;-71
2023/03/02 07:53:53;;;;;;;61.15;22.80;;;4.30;99.90;;;;;;5098038;28;20043;-71
2023/03/02 07:56:19;;;;;;;74.68;25.05;;;4.50;99.90;;;;;;5097462;28;20044;-71
2023/03/02 07:58:45;;;;;;;60.10;23.73;;;4.50;99.90;;;;;;5097977;28;20097;-71
2023/03/02 08:01:11;;;;;;;69.35;24.58;;;4.60;99.90;;;;;;5097631;28;20085;-71
2023/03/02 08:03:37;;;;;;;61.03;22.05;;;4.70;99.90;;;;;;5097829;28;20032;-71
2023/03/02 08:06:11;;;;;;;72.70;21.95;;;4.70;99.90;;;;;;5096741;28;20056;-72
2023/03/02 08:08:37;;;;;;;59.35;21.65;;;4.70;99.90;;;;;;5097608;28;20055;-71
2023/03/02 08:11:23;;;;;;;44.65;19.83;;;4.60;99.90;;;;;;5096723;28;20138;-71
2023/03/02 08:13:48;;;;;;;53.65;20.33;;;4.70;99.90;;;;;;5097156;28;20048;-71
2023/03/02 08:16:15;;;;;;;75.30;23.90;;;4.70;99.90;;;;;;5096344;28;20051;-71
2023/03/02 08:18:41;;;;;;;57.67;21.60;;;4.50;99.90;;;;;;5097628;28;20036;-71
2023/03/02 08:21:15;;;;;;;53.72;20.98;;;4.50;99.90;;;;;;5096521;28;20067;-71
2023/03/02 08:23:41;;;;;;;45.28;19.35;;;4.40;99.90;;;;;;5098045;28;20032;-71
2023/03/02 08:26:07;;;;;;;47.47;19.58;;;4.40;99.90;;;;;;5096088;28;20062;-71
2023/03/02 08:28:33;;;;;;;59.63;21.75;;;4.50;99.90;;;;;;5097394;28;20118;-72
2023/03/02 08:31:00;;;;;;;57.15;19.85;;;4.60;99.90;;;;;;5096015;28;20182;-72
2023/03/02 08:33:27;;;;;;;43.78;18.80;;;4.40;99.90;;;;;;5097349;28;20047;-71
2023/03/02 08:36:07;;;;;;;43.13;18.48;;;4.40;99.90;;;;;;5097236;28;20051;-71
2023/03/02 08:38:34;;;;;;;43.88;17.67;;;4.30;99.90;;;;;;5097371;28;20040;-71
2023/03/02 08:41:03;;;;;;;52.10;19.42;;;4.30;99.90;;;;;;5097339;28;20332;-71
2023/03/02 08:43:29;;;;;;;50.55;19.25;;;4.40;99.90;;;;;;5096894;28;20047;-72
2023/03/02 08:45:56;;;;;;;40.75;18.17;;;4.50;99.90;;;;;;5097129;28;20044;-72
2023/03/02 08:48:23;;;;;;;44.08;18.77;;;4.70;99.90;;;;;;5096620;28;20170;-72
2023/03/02 08:50:57;;;;;;;46.20;18.50;;;4.80;99.90;;;;;;5096714;28;20507;-72
2023/03/02 08:53:23;;;;;;;41.10;18.75;;;4.70;99.90;;;;;;5096036;28;20055;-72
2023/03/02 08:55:50;;;;;;;56.00;20.27;;;4.70;99.90;;;;;;5096334;28;20040;-72
2023/03/02 08:58:15;;;;;;;47.72;19.42;;;4.80;99.90;;;;;;5095972;28;20146;-72
2023/03/02 09:00:41;;;;;;;44.38;19.38;;;4.80;99.90;;;;;;5097050;28;20460;-71
2023/03/02 09:03:07;;;;;;;41.55;18.75;;;4.80;99.90;;;;;;5096960;28;20036;-72
2023/03/02 09:05:32;;;;;;;48.20;21.13;;;4.90;99.90;;;;;;5096643;28;20349;-72
2023/03/02 09:07:58;;;;;;;43.88;18.90;;;5.10;99.90;;;;;;5095952;28;20048;-72
2023/03/02 09:10:24;;;;;;;50.78;20.23;;;5.10;99.90;;;;;;5096880;28;20114;-71
2023/03/02 09:12:49;;;;;;;45.03;19.25;;;5.20;99.90;;;;;;5096835;28;20042;-71
2023/03/02 09:15:15;;;;;;;38.67;18.30;;;5.30;99.90;;;;;;5096743;28;20052;-69
2023/03/02 09:17:41;;;;;;;43.22;17.75;;;5.40;99.90;;;;;;5095479;28;20039;-68
2023/03/02 09:20:07;;;;;;;44.75;17.98;;;5.40;99.90;;;;;;5096772;28;20097;-68
2023/03/02 09:22:34;;;;;;;36.65;16.25;;;5.50;99.90;;;;;;5095762;28;20476;-68
2023/03/02 09:25:02;;;;;;;42.00;17.52;;;5.40;99.90;;;;;;5096027;28;20044;-69
2023/03/02 09:27:27;;;;;;;37.45;17.25;;;5.40;99.90;;;;;;5096463;28;20046;-69
2023/03/02 09:29:53;;;;;;;38.42;17.48;;;5.40;99.90;;;;;;5096697;28;20049;-69
2023/03/02 09:32:19;;;;;;;35.35;16.13;;;5.50;99.90;;;;;;5096702;28;20036;-69
2023/03/02 09:34:44;;;;;;;35.25;15.77;;;5.50;99.90;;;;;;5096591;28;20064;-69
2023/03/02 09:37:10;;;;;;;31.80;15.90;;;5.50;99.90;;;;;;5096684;28;20484;-69
2023/03/02 09:39:37;;;;;;;32.85;14.85;;;5.50;99.90;;;;;;5096624;28;20048;-69
2023/03/02 09:42:24;;;;;;;34.35;16.45;;;5.50;99.90;;;;;;5096266;28;20044;-70
2023/03/02 09:44:57;;;;;;;32.67;14.85;;;5.30;99.90;;;;;;5096551;28;20040;-69
2023/03/02 09:47:46;;;;;;;34.70;15.45;;;5.20;99.90;;;;;;5096570;28;20040;-69
2023/03/02 09:50:36;;;;;;;32.70;14.75;;;5.10;99.90;;;;;;5096258;28;20075;-69
2023/03/02 09:53:21;;;;;;;31.10;14.50;;;5.10;99.90;;;;;;5095236;28;20396;-69
2023/03/02 09:55:53;;;;;;;29.13;13.65;;;5.30;99.90;;;;;;5096172;28;20329;-69
2023/03/02 09:58:24;;;;;;;32.05;14.13;;;5.20;99.90;;;;;;5096442;28;20101;-69
2023/03/02 10:00:50;;;;;;;28.30;13.48;;;5.00;99.90;;;;;;5097907;28;20111;-68
2023/03/02 10:03:21;;;;;;;29.38;13.85;;;5.10;99.90;;;;;;5100029;28;20040;-68
2023/03/02 10:05:50;;;;;;;32.35;14.32;;;5.30;99.90;;;;;;5099874;28;20399;-68
2023/03/02 10:08:21;;;;;;;31.27;14.57;;;5.50;99.90;;;;;;5100041;28;20314;-68
2023/03/02 10:11:07;;;;;;;30.70;14.25;;;5.70;99.90;;;;;;5099076;28;20040;-69
2023/03/02 10:13:45;;;;;;;31.83;14.37;;;5.80;99.90;;;;;;5098323;28;20084;-68
2023/03/02 10:16:33;;;;;;;30.30;14.45;;;5.90;99.90;;;;;;5099516;28;20337;-69
2023/03/02 10:19:17;;;;;;;29.90;14.13;;;6.10;99.90;;;;;;5099827;28;20040;-69
2023/03/02 10:21:46;;;;;;;31.17;13.60;;;6.10;99.90;;;;;;5099845;28;20123;-68
2023/03/02 10:24:35;;;;;;;28.83;12.70;;;6.10;99.90;;;;;;5095011;28;20076;-69
2023/03/02 10:27:17;;;;;;;29.67;12.93;;;5.80;99.90;;;;;;5084841;28;20036;-72
2023/03/02 10:29:59;;;;;;;34.85;15.23;;;6.10;99.90;;;;;;5079332;28;20116;-70
2023/03/02 10:32:49;;;;;;;30.33;13.80;;;6.20;99.90;;;;;;5097000;28;20047;-69
2023/03/02 10:35:21;;;;;;;33.95;14.60;;;6.40;99.90;;;;;;5095686;28;20125;-68
2023/03/02 10:37:50;;;;;;;30.23;14.50;;;6.40;99.90;;;;;;5078992;28;20117;-68
2023/03/02 10:40:38;;;;;;;29.42;13.18;;;6.50;99.90;;;;;;5089793;28;20040;-69
2023/03/02 10:43:09;;;;;;;33.63;15.13;;;6.50;99.90;;;;;;5060820;28;20045;-68
2023/03/02 10:45:35;;;;;;;30.05;12.85;;;6.70;99.90;;;;;;5089173;28;20055;-68
2023/03/02 10:48:06;;;;;;;38.75;14.38;;;6.90;99.90;;;;;;5098854;28;20039;-68
2023/03/02 10:50:32;;;;;;;44.47;17.30;;;6.90;99.90;;;;;;5098850;28;20036;-68
2023/03/02 10:52:58;;;;;;;41.55;16.92;;;6.60;99.90;;;;;;5098000;28;20048;-68
2023/03/02 10:55:25;;;;;;;43.90;16.52;;;6.50;99.90;;;;;;5098398;28;20032;-69
2023/03/02 10:58:04;;;;;;;42.50;16.05;;;6.70;99.90;;;;;;5094417;28;20045;-67
2023/03/02 11:00:33;;;;;;;38.03;14.85;;;6.80;99.90;;;;;;5089543;28;20160;-74
2023/03/02 11:03:01;;;;;;;42.20;16.13;;;6.70;99.90;;;;;;5097451;28;20036;-68
2023/03/02 11:05:31;;;;;;;44.75;17.77;;;6.90;99.90;;;;;;5098070;28;20060;-68
2023/03/02 11:08:03;;;;;;;48.40;17.17;;;7.20;99.90;;;;;;5098385;28;20126;-67
2023/03/02 11:10:35;;;;;;;43.17;16.50;;;7.40;99.90;;;;;;5094399;28;20066;-68
2023/03/02 11:13:14;;;;;;;44.05;17.20;;;7.50;99.90;;;;;;5092514;28;20425;-68
2023/03/02 11:15:49;;;;;;;48.63;19.23;;;7.40;99.90;;;;;;5095403;28;20036;-69
2023/03/02 11:18:17;;;;;;;46.05;17.13;;;7.60;99.90;;;;;;5076694;28;20040;-68
2023/03/02 11:20:47;;;;;;;48.25;16.95;;;7.70;99.90;;;;;;5077069;28;20079;-68
2023/03/02 11:23:35;;;;;;;47.83;18.00;;;7.80;99.90;;;;;;5098196;28;20097;-68
2023/03/02 11:26:32;;;;;;;42.83;16.52;;;8.00;99.90;;;;;;5086825;28;20044;-69
2023/03/02 11:29:13;;;;;;;;;;;8.70;99.90;;;;;;5092666;28;20040;-69
2023/03/02 11:31:44;;;;;;;45.85;16.77;;;9.20;99.90;;;;;;5076724;28;19920;-69
2023/03/02 11:34:27;;;;;;;40.22;15.82;;;9.20;99.90;;;;;;5084359;28;20038;-69
2023/03/02 11:37:02;;;;;;;34.42;14.63;;;9.30;99.90;;;;;;5096710;28;20040;-68
2023/03/02 11:40:07;;;;;;;35.17;14.45;;;9.40;99.90;;;;;;5078054;28;20036;-69
2023/03/02 11:42:39;;;;;;;31.85;14.20;;;9.30;99.90;;;;;;5075457;28;20045;-69
2023/03/02 11:45:22;;;;;;;29.40;13.82;;;9.10;99.90;;;;;;5110410;28;20037;-68
2023/03/02 11:48:03;;;;;;;35.90;13.23;;;9.10;99.90;;;;;;5077620;28;20426;-70
2023/03/02 11:50:31;;;;;;;28.85;13.10;;;9.20;99.90;;;;;;5076629;28;20123;-68
2023/03/02 11:53:02;;;;;;;26.83;12.45;;;9.30;99.90;;;;;;5110353;28;20054;-68
2023/03/02 11:55:33;;;;;;;28.25;12.77;;;9.10;99.90;;;;;;5077237;28;20040;-67
2023/03/02 11:58:01;;;;;;;28.48;12.23;;;9.40;99.90;;;;;;5077377;28;20094;-68
2023/03/02 12:00:32;;;;;;;28.75;13.23;;;9.90;99.90;;;;;;5077591;28;20037;-68
2023/03/02 12:03:06;;;;;;;28.25;11.82;;;10.50;99.90;;;;;;5077425;28;20413;-70
2023/03/02 12:05:38;;;;;;;24.58;11.60;;;10.90;99.90;;;;;;5077888;28;20048;-75
2023/03/02 12:08:19;;;;;;;21.98;11.50;;;11.20;99.90;;;;;;5110232;28;20445;-75
2023/03/02 12:11:16;;;;;;;20.75;11.05;;;10.50;99.90;;;;;;5076269;28;20452;-75
2023/03/02 12:13:43;;;;;;;21.83;10.82;;;10.00;99.90;;;;;;5076555;28;20040;-68
2023/03/02 12:16:40;;;;;;;20.92;10.10;;;9.70;99.90;;;;;;5076849;28;20033;-69
2023/03/02 12:19:16;;;;;;;20.42;10.50;;;9.80;99.90;;;;;;5068722;28;20055;-66
2023/03/02 12:22:07;;;;;;;20.60;10.45;;;10.10;99.90;;;;;;5076910;28;20456;-68
2023/03/02 12:24:38;;;;;;;18.27;10.07;;;9.90;99.90;;;;;;5076592;28;20064;-70
2023/03/02 12:27:05;;;;;;;17.30;9.73;;;10.10;99.90;;;;;;5075775;28;20145;-67
2023/03/02 12:29:46;;;;;;;19.50;10.38;;;10.30;99.90;;;;;;5077112;28;20080;-68
2023/03/02 12:32:32;;;;;;;17.95;9.77;;;10.90;99.90;;;;;;5077063;28;20044;-68
2023/03/02 12:35:06;;;;;;;19.47;10.30;;;11.60;99.90;;;;;;5076613;28;20040;-67
2023/03/02 12:37:46;;;;;;;17.55;9.63;;;11.60;99.90;;;;;;5077024;28;20439;-67
2023/03/02 12:40:49;;;;;;;18.40;9.18;;;12.10;99.90;;;;;;5076086;28;20032;-68
2023/03/02 12:43:26;;;;;;;19.70;8.90;;;11.50;99.90;;;;;;5076646;28;20448;-67
2023/03/02 12:46:28;;;;;;;15.68;7.90;;;10.90;99.90;;;;;;5076673;28;20127;-68
2023/03/02 12:49:13;;;;;;;16.52;9.45;;;10.90;99.90;;;;;;5076898;28;20045;-68
2023/03/02 12:51:57;;;;;;;14.00;7.75;;;11.20;99.90;;;;;;5076913;28;20043;-68